Time;durP1;ratioP1;P1;durP2;ratioP2;P2;SDS_P1;SDS_P2;PMS_P1;PMS_P2;Temp;Humidity;BMP_temperature;BMP_pressure;BME280_temperature;BME280_humidity;BME280_pressure;Samples;Min_cycle;Max_cycle;Signal;HPM_P1;HPM_P2
2022/05/10 00:01:51;;;;;;;20.60;14.93;;;;;;;13.22;100.00;101942.59;5333869;27;20023;-81
2022/05/10 00:04:22;;;;;;;21.63;14.48;;;;;;;13.22;100.00;101941.78;5328649;27;20056;-81
2022/05/10 00:06:54;;;;;;;16.95;13.60;;;;;;;12.89;100.00;101937.50;5294410;28;20111;-81
2022/05/10 00:09:29;;;;;;;22.55;15.80;;;;;;;12.69;100.00;101942.69;5312063;28;20036;-81
2022/05/10 00:12:00;;;;;;;18.67;13.90;;;;;;;12.77;100.00;101942.03;5313151;28;20024;-81
2022/05/10 00:14:32;;;;;;;19.45;14.20;;;;;;;12.79;100.00;101937.41;5293494;28;20082;-81
2022/05/10 00:17:03;;;;;;;21.95;14.27;;;;;;;12.82;100.00;101935.31;5314825;28;20115;-81
2022/05/10 00:19:35;;;;;;;23.65;16.83;;;;;;;12.79;100.00;101935.56;5286753;28;20047;-81
2022/05/10 00:22:06;;;;;;;18.77;14.00;;;;;;;12.78;100.00;101933.03;5314867;28;20040;-81
2022/05/10 00:24:37;;;;;;;18.80;14.25;;;;;;;12.82;100.00;101931.81;5313468;28;20047;-81
2022/05/10 00:27:08;;;;;;;15.32;13.73;;;;;;;12.82;100.00;101924.59;5315812;28;20031;-81
2022/05/10 00:29:40;;;;;;;22.25;15.27;;;;;;;12.77;100.00;101926.81;5295399;28;20032;-81
2022/05/10 00:32:11;;;;;;;19.52;16.10;;;;;;;12.80;100.00;101921.22;5310967;28;20039;-81
2022/05/10 00:34:43;;;;;;;17.52;15.52;;;;;;;12.75;100.00;101911.88;5310826;28;20488;-81
2022/05/10 00:37:20;;;;;;;17.48;15.50;;;;;;;12.71;100.00;101915.78;5311546;28;20067;-81
2022/05/10 00:39:52;;;;;;;17.35;15.45;;;;;;;12.75;100.00;101919.91;5311908;28;20118;-81
2022/05/10 00:42:31;;;;;;;20.23;15.13;;;;;;;12.59;100.00;101909.66;5310304;27;20093;-81
2022/05/10 00:45:15;;;;;;;20.83;16.35;;;;;;;12.61;100.00;101908.53;5291663;28;20040;-81
2022/05/10 00:47:54;;;;;;;21.95;16.75;;;;;;;12.57;100.00;101907.13;5311459;28;20035;-81
2022/05/10 00:50:35;;;;;;;22.33;17.50;;;;;;;12.47;100.00;101900.84;5311660;28;20659;-81
2022/05/10 00:53:17;;;;;;;19.52;16.20;;;;;;;12.46;100.00;101910.69;5295633;28;20040;-81
2022/05/10 00:56:14;;;;;;;25.48;17.73;;;;;;;12.36;100.00;101909.75;5314904;28;20142;-81
2022/05/10 00:58:54;;;;;;;21.70;18.30;;;;;;;12.29;100.00;101900.56;5299311;28;20043;-81
2022/05/10 01:01:31;;;;;;;22.35;19.23;;;;;;;12.30;100.00;101896.88;5312296;28;20157;-81
2022/05/10 01:04:15;;;;;;;18.73;14.65;;;;;;;12.27;100.00;101902.47;5317393;27;20032;-81
2022/05/10 01:07:08;;;;;;;22.08;17.80;;;;;;;12.18;100.00;101888.03;5298240;28;20419;-81
2022/05/10 01:09:42;;;;;;;22.13;18.60;;;;;;;12.26;100.00;101900.81;5316484;28;20543;-81
2022/05/10 01:12:40;;;;;;;23.33;19.05;;;;;;;12.09;100.00;101883.47;5299596;28;20043;-81
2022/05/10 01:15:16;;;;;;;22.27;18.77;;;;;;;12.24;100.00;101889.38;5314767;28;20472;-81
2022/05/10 01:17:51;;;;;;;30.05;22.02;;;;;;;12.18;100.00;101882.69;5288751;28;20028;-81
2022/05/10 01:20:30;;;;;;;22.92;18.77;;;;;;;12.22;100.00;101888.63;5314791;28;20121;-81
2022/05/10 01:23:13;;;;;;;25.52;19.80;;;;;;;12.21;100.00;101887.81;5314139;28;20047;-81
2022/05/10 01:25:50;;;;;;;23.00;18.92;;;;;;;12.29;100.00;101885.34;5310662;28;39932;-81
2022/05/10 01:28:33;;;;;;;21.23;17.02;;;;;;;12.28;100.00;101883.63;5315001;28;20028;-81
2022/05/10 01:31:18;;;;;;;18.90;16.73;;;;;;;12.23;100.00;101874.31;5297535;28;20444;-81
2022/05/10 01:34:00;;;;;;;22.55;18.88;;;;;;;12.28;100.00;101874.78;5314069;28;20407;-82
2022/05/10 01:36:45;;;;;;;22.30;18.23;;;;;;;12.24;100.00;101865.31;5312537;28;20020;-81
2022/05/10 01:39:27;;;;;;;25.98;21.20;;;;;;;12.25;100.00;101867.88;5294755;28;20036;-81
2022/05/10 01:42:07;;;;;;;23.05;18.98;;;;;;;12.32;100.00;101864.66;5298683;28;20036;-81
2022/05/10 01:44:54;;;;;;;20.73;17.95;;;;;;;12.32;100.00;101862.81;5316636;28;20388;-80
2022/05/10 01:47:39;;;;;;;24.05;19.30;;;;;;;12.32;100.00;101857.47;5290349;28;20033;-81
2022/05/10 01:50:21;;;;;;;26.30;20.55;;;;;;;12.29;100.00;101855.91;5315848;28;20178;-81
2022/05/10 01:53:03;;;;;;;21.73;17.52;;;;;;;12.26;100.00;101858.84;5316907;28;20498;-81
2022/05/10 01:55:39;;;;;;;24.45;19.40;;;;;;;12.17;100.00;101853.44;5317065;28;20032;-81
2022/05/10 01:58:17;;;;;;;32.00;20.75;;;;;;;12.18;100.00;101844.41;5312809;28;20088;-81
2022/05/10 02:01:08;;;;;;;23.15;19.65;;;;;;;12.13;100.00;101850.13;5313727;28;20020;-80
2022/05/10 02:04:01;;;;;;;24.08;18.92;;;;;;;12.13;100.00;101838.59;5292966;28;20039;-81
2022/05/10 02:06:42;;;;;;;29.48;20.80;;;;;;;12.17;100.00;101851.59;5335192;27;20078;-81
2022/05/10 02:09:37;;;;;;;25.05;20.63;;;;;;;12.18;100.00;101844.41;5335702;27;20039;-81
2022/05/10 02:12:15;;;;;;;29.02;19.80;;;;;;;12.06;100.00;101835.59;5336123;27;20032;-81
2022/05/10 02:14:52;;;;;;;18.75;15.93;;;;;;;12.01;100.00;101837.78;5337443;27;20463;-82
2022/05/10 02:17:38;;;;;;;22.35;15.95;;;;;;;12.01;100.00;101837.78;5334301;27;20074;-81
2022/05/10 02:20:13;;;;;;;31.48;20.75;;;;;;;12.05;100.00;101821.38;5335223;27;20077;-81
2022/05/10 02:22:55;;;;;;;27.45;20.17;;;;;;;12.17;100.00;101830.19;5334020;27;20038;-81
2022/05/10 02:25:33;;;;;;;26.35;21.42;;;;;;;12.17;100.00;101822.19;5333753;27;20229;-81
2022/05/10 02:28:15;;;;;;;29.70;20.38;;;;;;;12.19;100.00;101820.22;5336187;27;20099;-81
2022/05/10 02:30:49;;;;;;;28.85;21.15;;;;;;;12.25;100.00;101825.06;5336560;27;20024;-81
2022/05/10 02:33:21;;;;;;;33.35;20.15;;;;;;;12.35;100.00;101818.94;5315887;27;20148;-81
2022/05/10 02:35:55;;;;;;;28.10;21.75;;;;;;;12.39;100.00;101812.31;5316378;27;20020;-81
2022/05/10 02:38:32;;;;;;;27.80;21.02;;;;;;;12.43;100.00;101808.41;5310824;27;20032;-81
2022/05/10 02:41:16;;;;;;;31.63;21.73;;;;;;;12.44;100.00;101810.94;5338092;27;20020;-81
2022/05/10 02:43:54;;;;;;;27.02;20.20;;;;;;;12.48;100.00;101801.69;5336182;27;20075;-81
2022/05/10 02:46:25;;;;;;;25.95;19.83;;;;;;;12.51;100.00;101797.91;5334993;27;20053;-82
2022/05/10 02:48:56;;;;;;;25.58;19.50;;;;;;;12.52;100.00;101796.94;5296127;27;20173;-82
2022/05/10 02:51:28;;;;;;;27.55;20.58;;;;;;;12.53;100.00;101800.44;5335657;27;20020;-81
2022/05/10 02:53:59;;;;;;;26.83;19.83;;;;;;;12.56;100.00;101801.03;5332816;27;20123;-81
2022/05/10 02:56:31;;;;;;;25.00;19.00;;;;;;;12.60;100.00;101799.78;5339270;27;20027;-81
2022/05/10 02:59:16;;;;;;;21.98;18.60;;;;;;;12.59;100.00;101791.91;5335033;27;20506;-82
2022/05/10 03:01:57;;;;;;;20.42;17.58;;;;;;;12.55;100.00;101785.97;5333984;27;20525;-81
2022/05/10 03:04:52;;;;;;;23.92;18.15;;;;;;;12.60;100.00;101786.38;5332579;27;20062;-81
2022/05/10 03:07:25;;;;;;;25.55;19.80;;;;;;;12.72;100.00;101789.00;5314110;28;20028;-81
2022/05/10 03:09:56;;;;;;;24.83;20.30;;;;;;;12.73;100.00;101785.31;5293854;28;20036;-81
2022/05/10 03:12:27;;;;;;;24.25;18.52;;;;;;;12.75;100.00;101778.88;5286308;28;20175;-82
2022/05/10 03:14:59;;;;;;;21.35;17.63;;;;;;;12.76;100.00;101777.03;5315464;28;20035;-81
2022/05/10 03:17:30;;;;;;;25.42;19.55;;;;;;;12.76;100.00;101769.00;5314109;28;20718;-81
2022/05/10 03:20:01;;;;;;;26.60;19.15;;;;;;;12.84;100.00;101774.53;5316020;28;20950;-81
2022/05/10 03:22:33;;;;;;;23.88;17.80;;;;;;;12.88;100.00;101777.81;5314785;28;20800;-81
2022/05/10 03:25:04;;;;;;;23.77;19.13;;;;;;;12.88;100.00;101770.59;5315265;28;20415;-81
2022/05/10 03:27:37;;;;;;;21.83;16.38;;;;;;;12.85;100.00;101763.69;5317179;28;20070;-82
2022/05/10 03:30:09;;;;;;;21.75;18.60;;;;;;;12.96;100.00;101770.78;5290915;28;20024;-82
2022/05/10 03:32:40;;;;;;;24.02;18.70;;;;;;;12.94;100.00;101759.38;5314184;28;20642;-81
2022/05/10 03:35:15;;;;;;;19.42;16.73;;;;;;;13.02;100.00;101761.34;5311992;28;20131;-82
2022/05/10 03:37:47;;;;;;;24.58;17.75;;;;;;;12.98;100.00;101743.88;5299111;28;20434;-82
2022/05/10 03:40:18;;;;;;;20.05;16.90;;;;;;;13.07;100.00;101764.47;5315283;28;20039;-81
2022/05/10 03:42:52;;;;;;;24.95;17.45;;;;;;;13.00;100.00;101752.63;5315235;28;20486;-82
2022/05/10 03:45:24;;;;;;;25.52;19.00;;;;;;;12.97;100.00;101756.44;5295935;28;20119;-81
2022/05/10 03:47:56;;;;;;;20.58;17.50;;;;;;;13.02;100.00;101747.97;5315704;28;20032;-82
2022/05/10 03:50:27;;;;;;;23.50;19.02;;;;;;;12.91;100.00;101735.53;5312163;28;20497;-81
2022/05/10 03:52:58;;;;;;;25.40;19.40;;;;;;;13.00;100.00;101750.78;5289974;28;20032;-81
2022/05/10 03:55:30;;;;;;;30.35;19.58;;;;;;;13.01;100.00;101751.66;5318100;28;20391;-81
2022/05/10 03:58:04;;;;;;;25.48;18.80;;;;;;;12.96;100.00;101743.16;5316803;28;20127;-82
2022/05/10 04:00:35;;;;;;;29.02;20.02;;;;;;;13.02;100.00;101747.97;5297144;27;20027;-82
2022/05/10 04:03:07;;;;;;;23.65;18.33;;;;;;;13.03;100.00;101744.31;5313135;28;20490;-81
2022/05/10 04:05:38;;;;;;;27.88;18.75;;;;;;;13.08;100.00;101738.53;5317928;27;20040;-81
2022/05/10 04:08:10;;;;;;;28.38;20.02;;;;;;;13.11;100.00;101741.78;5309590;28;20073;-81
2022/05/10 04:10:42;;;;;;;27.02;19.70;;;;;;;13.08;100.00;101733.16;5310358;28;20045;-81
2022/05/10 04:13:13;;;;;;;27.80;18.67;;;;;;;13.16;100.00;101736.03;5313034;28;20024;-81
2022/05/10 04:15:44;;;;;;;23.85;19.45;;;;;;;13.18;100.00;101737.59;5314326;28;20024;-81
2022/05/10 04:18:16;;;;;;;22.35;16.70;;;;;;;13.21;100.00;101731.09;5314532;27;20024;-81
2022/05/10 04:20:47;;;;;;;25.88;19.13;;;;;;;13.24;100.00;101734.34;5315755;28;20024;-81
2022/05/10 04:23:18;;;;;;;26.88;18.73;;;;;;;13.30;100.00;101742.81;5287118;28;20402;-81
2022/05/10 04:25:49;;;;;;;23.70;18.95;;;;;;;13.36;100.00;101745.00;5293930;28;20056;-81
2022/05/10 04:28:21;;;;;;;24.42;18.38;;;;;;;13.38;100.00;101732.31;5290087;28;20032;-80
2022/05/10 04:30:52;;;;;;;24.33;18.15;;;;;;;13.50;100.00;101733.00;5289227;28;21537;-81
2022/05/10 04:33:26;;;;;;;23.20;18.50;;;;;;;13.54;100.00;101724.53;5308654;28;20358;-81
2022/05/10 04:35:57;;;;;;;26.42;19.05;;;;;;;13.69;100.00;101740.19;5314321;28;20071;-81
2022/05/10 04:38:28;;;;;;;24.77;18.80;;;;;;;13.72;100.00;101730.03;5307257;28;20028;-81
2022/05/10 04:43:50;;;;;;;28.88;19.00;;;;;;;13.95;100.00;101727.06;5313189;28;20427;-81
2022/05/10 04:46:21;;;;;;;23.23;16.08;;;;;;;14.11;100.00;101721.97;5312443;28;20038;-81
2022/05/10 04:48:53;;;;;;;27.10;16.58;;;;;;;14.23;100.00;101725.31;5314392;28;20024;-82
2022/05/10 04:51:24;;;;;;;24.38;16.42;;;;;;;14.35;100.00;101734.88;5308916;28;20028;-81
2022/05/10 04:53:56;;;;;;;24.17;16.23;;;;;;;14.48;100.00;101720.31;5311417;28;20020;-81
2022/05/10 04:56:31;;;;;;;29.02;17.20;;;;;;;14.62;100.00;101721.69;5308544;28;20151;-81
2022/05/10 04:59:02;;;;;;;22.65;15.93;;;;;;;14.73;100.00;101713.47;5286697;28;20024;-81
2022/05/10 05:01:33;;;;;;;24.42;15.85;;;;;;;14.89;100.00;101715.50;5310032;28;20032;-81
2022/05/10 05:04:05;;;;;;;21.77;15.15;;;;;;;15.00;100.00;101714.44;5312959;27;20101;-81
2022/05/10 05:06:39;;;;;;;27.63;15.88;;;;;;;15.11;100.00;101716.91;5310775;28;20470;-81
2022/05/10 05:09:10;;;;;;;22.65;16.25;;;;;;;15.24;100.00;101711.19;5311697;28;20476;-81
2022/05/10 05:11:42;;;;;;;24.65;17.00;;;;;;;15.34;100.00;101720.03;5310567;28;20034;-81
2022/05/10 05:14:13;;;;;;;24.65;15.25;;;;;;;15.45;100.00;101711.75;5292669;28;20024;-81
2022/05/10 05:16:44;;;;;;;21.23;15.52;;;;;;;15.55;100.00;101717.06;5313099;27;20465;-81
2022/05/10 05:19:15;;;;;;;22.85;15.60;;;;;;;15.65;100.00;101725.88;5289773;28;20077;-81
2022/05/10 05:21:47;;;;;;;20.13;15.68;;;;;;;15.67;100.00;101721.19;5311602;28;20046;-81
2022/05/10 05:24:18;;;;;;;20.35;14.60;;;;;;;15.75;100.00;101720.44;5294805;28;20032;-81
2022/05/10 05:26:52;;;;;;;21.95;14.77;;;;;;;15.79;100.00;101718.28;5310333;28;20040;-80
2022/05/10 05:29:24;;;;;;;19.25;14.30;;;;;;;15.85;100.00;101728.44;5304189;28;20472;-81
2022/05/10 05:31:55;;;;;;;18.88;14.75;;;;;;;15.88;100.00;101722.72;5325801;28;20031;-81
2022/05/10 05:34:26;;;;;;;19.38;14.68;;;;;;;15.94;100.00;101730.19;5325817;28;20041;-81
2022/05/10 05:39:47;;;;;;;20.40;15.13;;;;;;;16.02;100.00;101719.50;5318026;28;20388;-81
2022/05/10 05:42:19;;;;;;;16.85;13.65;;;;;;;16.09;100.00;101726.94;5318266;28;20081;-81
2022/05/10 05:44:50;;;;;;;18.38;13.77;;;;;;;16.15;100.00;101721.75;5295992;28;20066;-81
2022/05/10 05:47:21;;;;;;;19.38;13.70;;;;;;;16.23;100.00;101726.34;5319785;28;20025;-81
2022/05/10 05:49:53;;;;;;;17.98;14.02;;;;;;;16.31;100.00;101721.03;5319417;28;20127;-81
2022/05/10 05:52:25;;;;;;;17.65;14.07;;;;;;;16.48;100.00;101718.41;5317659;28;20503;-81
2022/05/10 05:54:56;;;;;;;18.73;14.13;;;;;;;16.57;100.00;101704.84;5317949;28;20051;-81
2022/05/10 05:57:27;;;;;;;18.58;14.15;;;;;;;16.77;100.00;101707.28;5317147;28;20119;-81
2022/05/10 05:59:59;;;;;;;18.42;14.10;;;;;;;16.87;100.00;101699.94;5323191;27;20024;-80
2022/05/10 06:02:30;;;;;;;19.15;13.82;;;;;;;16.97;100.00;101692.59;5326588;27;20107;-81
2022/05/10 06:05:02;;;;;;;17.83;13.35;;;;;;;17.07;100.00;101687.03;5320198;27;20082;-81
2022/05/10 06:07:34;;;;;;;16.17;12.45;;;;;;;17.13;100.00;101697.16;5320920;27;20092;-81
2022/05/10 06:10:06;;;;;;;16.75;12.38;;;;;;;17.27;100.00;101702.91;5320384;27;20082;-78
2022/05/10 06:12:39;;;;;;;18.33;12.00;;;;;;;17.39;100.00;101709.66;5320344;27;20039;-78
2022/05/10 06:15:14;;;;;;;14.73;11.93;;;;;;;17.45;100.00;101702.78;5320884;28;20089;-78
2022/05/10 06:17:47;;;;;;;16.02;10.90;;;;;;;17.57;100.00;101710.38;5317573;28;20070;-78
2022/05/10 06:20:21;;;;;;;13.95;11.15;;;;;;;17.67;100.00;101712.06;5296779;28;20039;-79
2022/05/10 06:22:53;;;;;;;13.88;11.23;;;;;;;17.83;100.00;101706.69;5313592;28;20025;-79
2022/05/10 06:25:24;;;;;;;13.13;10.30;;;;;;;18.10;100.00;101701.97;5316443;28;20076;-79
2022/05/10 06:27:56;;;;;;;15.93;10.45;;;;;;;18.19;100.00;101692.00;5300600;28;20129;-79
2022/05/10 06:30:28;;;;;;;14.98;10.30;;;;;;;18.38;100.00;101697.00;5297792;28;20124;-79
2022/05/10 06:33:00;;;;;;;14.93;10.30;;;;;;;18.39;100.00;101708.63;5319212;28;20363;-80
2022/05/10 06:35:31;;;;;;;17.85;9.75;;;;;;;18.54;100.00;101701.50;5294132;28;20048;-79
2022/05/10 06:40:54;;;;;;;13.93;8.63;;;;;;;18.72;100.00;101685.03;5314926;27;20082;-80
2022/05/10 06:43:26;;;;;;;30.02;9.55;;;;;;;18.72;100.00;101682.34;5313609;28;20032;-79
2022/05/10 06:46:01;;;;;;;17.80;9.10;;;;;;;18.96;100.00;101694.09;5317359;28;20038;-79
2022/05/10 06:48:32;;;;;;;13.50;8.07;;;;;;;19.05;100.00;101679.50;5313734;27;20016;-79
2022/05/10 06:51:05;;;;;;;12.65;7.82;;;;;;;19.23;100.00;101684.63;5315883;27;20082;-79
2022/05/10 06:53:37;;;;;;;11.63;7.40;;;;;;;19.39;100.00;101683.66;5317334;28;20035;-79
2022/05/10 06:56:08;;;;;;;12.50;7.15;;;;;;;19.57;100.00;101681.50;5296102;28;20036;-78
2022/05/10 06:58:40;;;;;;;16.27;8.40;;;;;;;19.57;100.00;101681.50;5308691;28;20021;-80
2022/05/10 07:01:15;;;;;;;66.00;10.80;;;;;;;19.89;100.00;101684.16;5306306;28;20025;-80
2022/05/10 07:03:48;;;;;;;13.32;7.25;;;;;;;19.96;100.00;101685.09;5311473;28;20038;-80
2022/05/10 07:06:25;;;;;;;11.90;6.88;;;;;;;20.16;100.00;101680.84;5330576;27;20047;-80
2022/05/10 07:08:57;;;;;;;12.70;6.82;;;;;;;20.53;100.00;101683.63;5333177;27;20491;-80
2022/05/10 07:11:28;;;;;;;13.82;6.82;;;;;;;21.07;100.00;101674.31;5335782;27;20047;-81
2022/05/10 07:13:59;;;;;;;10.52;6.40;;;;;;;21.05;100.00;101673.66;5334462;27;20050;-81
2022/05/10 07:16:30;;;;;;;10.80;6.38;;;;;;;21.14;100.00;101670.66;5345486;27;20063;-82
2022/05/10 07:19:02;;;;;;;11.35;6.75;;;;;;;21.59;100.00;101665.03;5333588;27;22857;-81
2022/05/10 07:21:33;;;;;;;14.27;6.18;;;;;;;21.73;100.00;101665.16;5333933;27;20024;-81
2022/05/10 07:24:05;;;;;;;9.35;6.18;;;;;;;21.90;100.00;101664.66;5338382;27;20144;-80
2022/05/10 07:26:36;;;;;;;10.75;6.35;;;;;;;22.35;100.00;101661.66;5336115;27;20076;-80
2022/05/10 07:29:07;;;;;;;8.95;6.28;;;;;;;23.34;100.00;101654.06;5333507;27;20031;-81
2022/05/10 07:31:39;;;;;;;10.27;6.53;;;;;;;23.20;100.00;101659.47;5335546;27;20106;-81
2022/05/10 07:34:11;;;;;;;17.52;6.32;;;;;;;23.03;100.00;101661.69;5339895;27;20039;-81
2022/05/10 07:36:42;;;;;;;16.33;6.22;;;;;;;22.78;100.00;101655.97;5333427;27;20365;-81
2022/05/10 07:39:14;;;;;;;14.38;6.25;;;;;;;22.47;100.00;101659.19;5339947;27;20031;-81
2022/05/10 07:41:48;;;;;;;26.92;6.45;;;;;;;22.59;100.00;101648.59;5339153;27;20113;-80
2022/05/10 07:44:21;;;;;;;9.57;5.40;;;;;;;22.64;100.00;101657.81;5334278;27;20047;-81
2022/05/10 07:46:52;;;;;;;9.25;5.45;;;;;;;23.13;100.00;101657.78;5338518;27;20023;-80
2022/05/10 07:49:24;;;;;;;10.55;5.35;;;;;;;23.78;100.00;101645.25;5336701;27;20049;-80
2022/05/10 07:51:55;;;;;;;9.35;4.90;;;;;;;23.80;94.43;101636.88;5337155;27;20023;-81
2022/05/10 07:54:28;;;;;;;10.18;5.15;;;;;;;24.00;94.80;101644.19;5339907;27;20035;-81
2022/05/10 07:56:59;;;;;;;12.10;5.72;;;;;;;23.59;95.37;101646.91;5340230;27;20038;-81
2022/05/10 07:59:31;;;;;;;15.00;5.20;;;;;;;23.90;94.78;101650.94;5342071;27;20023;-81
2022/05/10 08:02:03;;;;;;;9.20;5.65;;;;;;;23.41;94.88;101644.00;5341236;27;20277;-81
2022/05/10 08:04:35;;;;;;;10.68;5.13;;;;;;;23.34;96.94;101646.72;5338746;27;20064;-81
2022/05/10 08:07:06;;;;;;;22.23;5.70;;;;;;;22.83;100.00;101653.47;5338216;27;20028;-82
2022/05/10 08:09:37;;;;;;;17.77;5.50;;;;;;;22.84;100.00;101648.88;5337023;27;20292;-81
2022/05/10 08:12:08;;;;;;;11.82;4.93;;;;;;;22.84;100.00;101648.88;5338914;27;20036;-81
2022/05/10 08:14:40;;;;;;;12.55;5.20;;;;;;;22.98;100.00;101644.31;5335495;27;20024;-82
2022/05/10 08:17:11;;;;;;;10.27;5.10;;;;;;;23.10;99.92;101639.16;5338937;27;20024;-80
2022/05/10 08:19:42;;;;;;;11.45;5.43;;;;;;;23.15;100.00;101639.38;5336000;27;20262;-81
2022/05/10 08:22:13;;;;;;;10.63;5.40;;;;;;;23.23;98.49;101647.34;5340190;27;20053;-80
2022/05/10 08:24:45;;;;;;;22.10;5.85;;;;;;;23.07;98.48;101625.94;5336716;27;20039;-81
2022/05/10 08:27:16;;;;;;;21.20;7.23;;;;;;;23.18;97.29;101634.34;5338221;27;20026;-80
2022/05/10 08:29:47;;;;;;;27.98;5.97;;;;;;;23.24;96.81;101634.56;5333695;27;20321;-80
2022/05/10 08:32:19;;;;;;;37.30;8.05;;;;;;;22.91;95.73;101633.41;5338776;27;20028;-80
2022/05/10 08:34:50;;;;;;;31.33;7.00;;;;;;;22.73;98.13;101628.56;5333996;27;20036;-81
2022/05/10 08:37:21;;;;;;;14.73;5.50;;;;;;;22.72;100.00;101620.59;5329309;27;20023;-81
2022/05/10 08:39:52;;;;;;;12.93;5.47;;;;;;;22.49;100.00;101635.34;5338007;27;20038;-81
2022/05/10 08:42:28;;;;;;;13.23;4.85;;;;;;;22.52;100.00;101628.69;5341728;27;20531;-80
2022/05/10 08:45:08;;;;;;;16.75;5.05;;;;;;;22.59;100.00;101621.41;5337537;27;20479;-82
2022/05/10 08:47:42;;;;;;;14.90;5.10;;;;;;;22.32;100.00;101631.28;5329914;27;20043;-82
2022/05/10 08:50:14;;;;;;;23.92;6.15;;;;;;;22.35;100.00;101607.31;5340666;27;20031;-82
2022/05/10 08:52:47;;;;;;;27.08;6.78;;;;;;;22.46;99.15;101628.44;5327443;27;20054;-81
2022/05/10 08:55:26;;;;;;;24.58;6.45;;;;;;;22.41;100.00;101627.38;5331389;27;20030;-81
2022/05/10 08:58:10;;;;;;;28.40;6.50;;;;;;;22.82;98.51;101613.72;5330502;27;20032;-81
2022/05/10 09:00:49;;;;;;;22.27;5.63;;;;;;;23.16;96.63;101606.50;5330951;27;20034;-81
2022/05/10 09:03:43;;;;;;;17.70;5.15;;;;;;;24.23;91.11;101613.75;5332981;27;20067;-81
2022/05/10 09:06:27;;;;;;;12.25;4.88;;;;;;;25.41;74.83;101607.88;5307793;27;20376;-81
2022/05/10 09:09:28;;;;;;;11.50;4.68;;;;;;;25.27;71.00;101618.06;5317133;28;20036;-81
2022/05/10 09:12:07;;;;;;;9.07;4.25;;;;;;;25.27;71.37;101614.50;5310541;28;20028;-80
2022/05/10 09:14:49;;;;;;;12.40;4.97;;;;;;;25.73;69.12;101607.81;5310711;28;20043;-81
2022/05/10 09:17:24;;;;;;;14.40;5.53;;;;;;;26.04;63.44;101603.31;5320979;28;20032;-81
2022/05/10 09:19:56;;;;;;;8.13;4.22;;;;;;;26.37;60.92;101602.09;5317980;28;20035;-81
2022/05/10 09:22:38;;;;;;;10.20;4.70;;;;;;;26.58;61.34;101598.03;5322612;28;20021;-82
2022/05/10 09:25:32;;;;;;;11.15;4.43;;;;;;;26.56;61.02;101605.63;5322235;28;20131;-82
2022/05/10 09:28:14;;;;;;;17.50;5.13;;;;;;;26.09;61.05;101605.34;5309545;28;20040;-80
2022/05/10 09:36:29;;;;;;;10.18;4.75;;;;;;;26.17;62.49;101605.06;5313903;28;20045;-81
2022/05/10 09:39:14;;;;;;;8.93;4.63;;;;;;;25.99;64.35;101581.31;5293355;28;20358;-82
2022/05/10 09:41:51;;;;;;;16.67;4.80;;;;;;;25.95;65.58;101594.59;5298053;28;20480;-81
2022/05/10 09:44:29;;;;;;;10.88;4.90;;;;;;;25.74;65.89;101597.72;5311167;28;20055;-81
2022/05/10 09:47:13;;;;;;;12.65;4.65;;;;;;;25.91;66.17;101590.63;5296393;28;20468;-80
2022/05/10 09:49:45;;;;;;;16.38;5.30;;;;;;;26.10;66.26;101590.63;5308746;28;20118;-80
2022/05/10 09:52:19;;;;;;;20.97;5.90;;;;;;;26.56;61.30;101572.78;5296582;28;20028;-81
2022/05/10 09:54:53;;;;;;;21.98;5.60;;;;;;;27.11;58.20;101588.25;5315051;28;20754;-82
2022/05/10 09:57:37;;;;;;;27.08;5.47;;;;;;;28.82;52.80;101570.63;5319771;28;20460;-82
2022/05/10 10:00:14;;;;;;;8.60;4.45;;;;;;;29.74;47.09;101573.22;5313046;28;20032;-83
2022/05/10 10:02:56;;;;;;;12.18;4.05;;;;;;;31.05;44.34;101567.84;5316322;28;20035;-82
2022/05/10 10:05:35;;;;;;;22.10;5.22;;;;;;;30.89;41.63;101583.38;5316546;27;20059;-82
2022/05/10 10:08:07;;;;;;;36.28;5.22;;;;;;;29.27;42.81;101562.63;5312651;28;20028;-82
2022/05/10 10:10:38;;;;;;;18.30;5.15;;;;;;;30.30;40.78;101570.38;5318438;28;20391;-82
2022/05/10 10:13:32;;;;;;;21.60;5.20;;;;;;;30.44;41.66;101588.19;5321429;28;20036;-83
2022/05/10 10:16:14;;;;;;;55.25;6.70;;;;;;;29.71;41.34;101566.28;5316817;27;20028;-83
2022/05/10 10:18:49;;;;;;;18.60;4.43;;;;;;;30.06;39.88;101581.63;5311730;28;20021;-82
2022/05/10 10:21:28;;;;;;;15.77;4.30;;;;;;;30.83;38.35;101557.75;5317411;28;20036;-83
2022/05/10 10:24:01;;;;;;;26.75;4.40;;;;;;;31.81;36.35;101561.25;5315652;28;20054;-83
2022/05/10 10:26:44;;;;;;;35.58;5.05;;;;;;;31.62;35.76;101547.91;5318349;28;20116;-82
2022/05/10 10:29:30;;;;;;;24.02;4.80;;;;;;;31.16;35.70;101561.34;5318283;28;20028;-81
2022/05/10 10:32:20;;;;;;;42.95;6.07;;;;;;;30.68;36.96;101569.44;5312130;28;20070;-82
2022/05/10 10:34:57;;;;;;;56.63;7.57;;;;;;;29.70;37.39;101569.28;5316056;28;20031;-82
2022/05/10 10:37:38;;;;;;;12.18;3.80;;;;;;;30.51;37.82;101536.50;5300074;28;20538;-82
2022/05/10 10:40:16;;;;;;;21.48;3.70;;;;;;;31.66;36.33;101550.97;5306488;28;20032;-82
2022/05/10 10:43:09;;;;;;;14.43;3.90;;;;;;;32.46;33.51;101553.50;5304459;28;20031;-82
2022/05/10 10:45:45;;;;;;;46.17;7.13;;;;;;;31.26;34.73;101544.09;5304925;28;20059;-83
2022/05/10 10:48:20;;;;;;;25.10;5.00;;;;;;;30.04;36.73;101545.31;5318145;28;20107;-82
2022/05/10 10:50:52;;;;;;;12.88;4.65;;;;;;;28.82;39.67;101543.19;5299234;28;20060;-82
2022/05/10 10:53:26;;;;;;;9.80;4.05;;;;;;;29.75;38.54;101556.50;5306864;28;20395;-81
2022/05/10 10:56:19;;;;;;;17.58;4.65;;;;;;;29.60;38.67;101546.06;5319236;28;20127;-81
2022/05/10 10:59:09;;;;;;;22.88;4.70;;;;;;;29.04;39.76;101526.78;5311397;28;20028;-82
2022/05/10 11:02:35;;;;;;;9.02;3.83;;;;;;;28.17;43.83;101529.84;5294289;28;20407;-83
2022/05/10 11:05:15;;;;;;;21.42;5.00;;;;;;;27.41;44.96;101536.16;5245232;28;20073;-82
2022/05/10 11:08:11;;;;;;;16.73;4.18;;;;;;;27.83;43.77;101521.47;5331980;27;20542;-83
2022/05/10 11:10:52;;;;;;;12.07;4.20;;;;;;;27.72;44.42;101512.19;5337835;27;20383;-82
2022/05/10 11:13:41;;;;;;;15.88;4.68;;;;;;;27.86;43.99;101510.03;5338738;27;20069;-82
2022/05/10 11:16:31;;;;;;;17.30;4.22;;;;;;;28.25;43.80;101505.63;5331698;27;20502;-82
2022/05/10 11:19:30;;;;;;;18.13;4.25;;;;;;;27.63;45.51;101508.13;5325932;27;20047;-82
2022/05/10 11:22:13;;;;;;;13.75;4.30;;;;;;;27.10;47.59;101504.44;5340571;27;20364;-82
2022/05/10 11:25:06;;;;;;;12.43;4.18;;;;;;;26.82;49.08;101514.16;5334545;27;41008;-83
2022/05/10 11:28:13;;;;;;;17.83;5.40;;;;;;;27.41;48.69;101516.97;5337308;27;20051;-82
2022/05/10 11:30:57;;;;;;;20.35;4.22;;;;;;;28.62;45.52;101498.91;5330325;27;20418;-83
2022/05/10 11:33:42;;;;;;;14.80;4.30;;;;;;;29.67;42.71;101496.44;5333680;27;20059;-82
2022/05/10 11:36:27;;;;;;;20.10;4.65;;;;;;;30.12;39.41;101494.50;5344914;27;20027;-81
2022/05/10 11:39:32;;;;;;;22.45;4.93;;;;;;;29.52;41.00;101493.47;5333043;27;20511;-82
2022/05/10 11:42:21;;;;;;;6.97;3.67;;;;;;;28.94;41.12;101490.94;5329635;27;20042;-83
2022/05/10 11:45:07;;;;;;;24.17;5.32;;;;;;;28.31;42.50;101492.00;5334663;27;20401;-82
2022/05/10 11:47:44;;;;;;;23.55;5.82;;;;;;;27.86;42.10;101482.59;5334222;27;20035;-81
2022/05/10 11:50:21;;;;;;;26.10;4.63;;;;;;;28.15;42.29;101477.16;5337680;27;20042;-80
2022/05/10 11:53:06;;;;;;;21.83;4.70;;;;;;;27.94;42.67;101473.19;5343676;27;20143;-80
2022/05/10 11:55:55;;;;;;;8.77;3.47;;;;;;;27.93;42.08;101472.38;5341877;27;20031;-82
2022/05/10 11:58:30;;;;;;;13.27;4.20;;;;;;;28.05;41.96;101470.41;5339652;27;20454;-81
2022/05/10 12:01:04;;;;;;;16.45;3.70;;;;;;;28.03;42.67;101464.34;5335055;27;20111;-82
2022/05/10 12:03:35;;;;;;;16.77;4.15;;;;;;;27.82;42.21;101471.31;5342173;27;20035;-81